Meath Environmental Platform

Observations for Trim Market St

Time AQI Temp °C Hum % Pres Pa CO μg/m³ H₂S μg/m³ NO μg/m³ NO₂ μg/m³ O₃ μg/m³ SO₂ μg/m³ PM1 μg/m³ PM2.5 μg/m³ PM10 μg/m³
Monday 17 August 2026
23:39 2 20 82 2,147,483,647 0.03 0 2.28 0 47.34 0 0 1.08 4.2
23:38 2 20 82 2,147,483,647 0.03 0 2.27 0 47.49 0 0.71 1.55 4.2
23:36 2 20 82 2,147,483,647 0.02 0 2.28 0 50.92 0 0 1.54 4.76
23:35 2 20 82 2,147,483,647 0.03 0 2.27 0 49.03 0 0.71 2.01 4.76
23:34 2 20 82 2,147,483,647 0.03 0 2.27 0 56.25 0 0.71 2.01 4.76
23:33 2 20 82 2,147,483,647 0.03 0 2.28 0 43.6 0 0.71 2.01 4.76
23:32 2 20 82 2,147,483,647 0.02 0 2.31 0 46.91 0 0.71 1.54 4.76
23:31 2 20 82 2,147,483,647 0.03 0 2.32 0 44.9 0 0 1.53 4.21
23:30 2 20 82 2,147,483,647 0.03 0 2.32 0 55.19 0 0.71 1.06 3.66
23:29 2 20 82 2,147,483,647 0.04 0 2.32 0 50.59 0 0 1.53 4.22
23:27 2 20 82 2,147,483,647 0.05 0 2.29 0 51.11 0 0 2.47 5.32
23:24 2 20 83 2,147,483,647 0.04 0 2.18 0 43.08 0 0 1.05 3.67
23:19 2 20 83 2,147,483,647 0.03 0 2.31 0 47.13 0 0 1.52 4.22
23:17 2 20 83 2,147,483,647 0.05 0 2.3 0 46.59 0 0 1.05 3.68
23:10 2 20 83 2,147,483,647 0.03 0 2.35 0 41.57 0 0 1.04 3.68
23:08 2 20 83 2,147,483,647 0.04 0 2.37 0 51.79 0 0 1.04 3.68
23:05 2 20 83 2,147,483,647 0.04 0 2.31 0 48.67 0 0 0.57 3.14
23:04 2 20 83 2,147,483,647 0.04 0 2.31 0 52.19 0 0 1.04 4.23
23:03 2 20 83 2,147,483,647 0.04 0 2.27 0.52 49.86 0 0 1.04 3.68
23:02 2 20 83 2,147,483,647 0.04 0 2.24 0 43.18 0 0 0.57 3.14